sensor_id;sensor_type;location;lat;lon;timestamp;P1;durP1;ratioP1;P2;durP2;ratioP2
11935;SDS011;6027;48.576;9.180;2023-04-01T00:01:06;3.22;;;1.13;;
11935;SDS011;6027;48.576;9.180;2023-04-01T00:03:33;2.70;;;1.00;;
11935;SDS011;6027;48.576;9.180;2023-04-01T00:05:59;3.07;;;1.20;;
11935;SDS011;6027;48.576;9.180;2023-04-01T00:08:25;2.37;;;1.10;;
11935;SDS011;6027;48.576;9.180;2023-04-01T00:10:51;2.53;;;1.13;;
11935;SDS011;6027;48.576;9.180;2023-04-01T00:13:17;3.97;;;1.10;;
11935;SDS011;6027;48.576;9.180;2023-04-01T00:15:43;5.13;;;1.23;;
11935;SDS011;6027;48.576;9.180;2023-04-01T00:18:09;3.07;;;1.10;;
11935;SDS011;6027;48.576;9.180;2023-04-01T00:20:34;5.77;;;0.93;;
11935;SDS011;6027;48.576;9.180;2023-04-01T00:23:00;1.42;;;0.80;;
11935;SDS011;6027;48.576;9.180;2023-04-01T00:25:26;3.75;;;1.00;;
11935;SDS011;6027;48.576;9.180;2023-04-01T00:27:51;4.03;;;1.23;;
11935;SDS011;6027;48.576;9.180;2023-04-01T00:30:17;3.75;;;1.10;;
11935;SDS011;6027;48.576;9.180;2023-04-01T00:32:42;1.73;;;0.70;;
11935;SDS011;6027;48.576;9.180;2023-04-01T00:35:08;3.25;;;0.95;;
11935;SDS011;6027;48.576;9.180;2023-04-01T00:37:35;1.50;;;0.80;;
11935;SDS011;6027;48.576;9.180;2023-04-01T00:40:02;2.72;;;0.80;;
11935;SDS011;6027;48.576;9.180;2023-04-01T00:42:30;2.20;;;1.00;;
11935;SDS011;6027;48.576;9.180;2023-04-01T00:44:56;3.03;;;0.90;;
11935;SDS011;6027;48.576;9.180;2023-04-01T00:47:22;3.73;;;1.00;;
11935;SDS011;6027;48.576;9.180;2023-04-01T00:49:50;3.00;;;0.90;;
11935;SDS011;6027;48.576;9.180;2023-04-01T00:52:18;3.43;;;1.10;;
11935;SDS011;6027;48.576;9.180;2023-04-01T00:54:46;3.30;;;0.80;;
11935;SDS011;6027;48.576;9.180;2023-04-01T00:57:25;1.67;;;0.88;;
11935;SDS011;6027;48.576;9.180;2023-04-01T00:59:56;1.30;;;0.80;;
11935;SDS011;6027;48.576;9.180;2023-04-01T01:02:22;1.92;;;0.90;;
11935;SDS011;6027;48.576;9.180;2023-04-01T01:04:48;1.87;;;0.80;;
11935;SDS011;6027;48.576;9.180;2023-04-01T01:10:39;3.80;;;0.83;;
11935;SDS011;6027;48.576;9.180;2023-04-01T01:13:23;1.50;;;0.80;;
11935;SDS011;6027;48.576;9.180;2023-04-01T01:16:06;1.30;;;0.70;;
11935;SDS011;6027;48.576;9.180;2023-04-01T01:18:47;1.50;;;0.73;;
11935;SDS011;6027;48.576;9.180;2023-04-01T01:37:41;2.65;;;1.10;;
11935;SDS011;6027;48.576;9.180;2023-04-01T01:40:10;1.25;;;0.73;;
11935;SDS011;6027;48.576;9.180;2023-04-01T01:42:38;2.67;;;0.90;;
11935;SDS011;6027;48.576;9.180;2023-04-01T01:45:07;1.87;;;0.83;;
11935;SDS011;6027;48.576;9.180;2023-04-01T01:47:35;2.33;;;0.70;;
11935;SDS011;6027;48.576;9.180;2023-04-01T01:50:01;2.83;;;1.02;;
11935;SDS011;6027;48.576;9.180;2023-04-01T01:52:29;1.07;;;0.60;;
11935;SDS011;6027;48.576;9.180;2023-04-01T01:54:55;1.83;;;0.70;;
11935;SDS011;6027;48.576;9.180;2023-04-01T01:57:23;3.50;;;0.87;;
11935;SDS011;6027;48.576;9.180;2023-04-01T01:59:52;0.97;;;0.60;;
11935;SDS011;6027;48.576;9.180;2023-04-01T02:02:23;0.40;;;0.40;;
11935;SDS011;6027;48.576;9.180;2023-04-01T02:04:50;1.67;;;0.70;;
11935;SDS011;6027;48.576;9.180;2023-04-01T02:07:25;1.33;;;0.70;;
11935;SDS011;6027;48.576;9.180;2023-04-01T02:09:56;1.97;;;0.80;;
11935;SDS011;6027;48.576;9.180;2023-04-01T02:12:22;1.23;;;0.70;;
11935;SDS011;6027;48.576;9.180;2023-04-01T02:17:29;1.75;;;0.80;;
11935;SDS011;6027;48.576;9.180;2023-04-01T02:20:19;0.63;;;0.53;;
11935;SDS011;6027;48.576;9.180;2023-04-01T02:25:13;3.97;;;0.73;;
11935;SDS011;6027;48.576;9.180;2023-04-01T02:27:43;2.63;;;0.70;;
11935;SDS011;6027;48.576;9.180;2023-04-01T02:30:10;1.30;;;0.88;;
11935;SDS011;6027;48.576;9.180;2023-04-01T02:32:39;1.30;;;0.80;;
11935;SDS011;6027;48.576;9.180;2023-04-01T02:35:05;1.00;;;0.90;;
11935;SDS011;6027;48.576;9.180;2023-04-01T02:37:33;1.10;;;0.80;;
11935;SDS011;6027;48.576;9.180;2023-04-01T02:40:03;1.57;;;0.70;;
11935;SDS011;6027;48.576;9.180;2023-04-01T02:42:31;1.40;;;0.70;;
11935;SDS011;6027;48.576;9.180;2023-04-01T02:44:57;2.03;;;0.40;;
11935;SDS011;6027;48.576;9.180;2023-04-01T02:47:22;1.05;;;0.65;;
11935;SDS011;6027;48.576;9.180;2023-04-01T02:49:48;0.83;;;0.50;;
11935;SDS011;6027;48.576;9.180;2023-04-01T02:52:13;0.40;;;0.30;;
11935;SDS011;6027;48.576;9.180;2023-04-01T02:54:39;1.17;;;0.57;;
11935;SDS011;6027;48.576;9.180;2023-04-01T02:57:05;1.58;;;0.60;;
11935;SDS011;6027;48.576;9.180;2023-04-01T02:59:30;0.80;;;0.50;;
11935;SDS011;6027;48.576;9.180;2023-04-01T03:01:56;1.83;;;0.60;;
11935;SDS011;6027;48.576;9.180;2023-04-01T03:04:21;0.80;;;0.47;;
11935;SDS011;6027;48.576;9.180;2023-04-01T03:06:46;0.73;;;0.50;;
11935;SDS011;6027;48.576;9.180;2023-04-01T03:09:12;0.93;;;0.40;;
11935;SDS011;6027;48.576;9.180;2023-04-01T03:11:37;1.43;;;0.57;;
11935;SDS011;6027;48.576;9.180;2023-04-01T03:14:03;0.43;;;0.30;;
11935;SDS011;6027;48.576;9.180;2023-04-01T03:16:28;0.87;;;0.50;;
11935;SDS011;6027;48.576;9.180;2023-04-01T03:18:53;1.13;;;0.60;;
11935;SDS011;6027;48.576;9.180;2023-04-01T03:21:22;0.87;;;0.40;;
11935;SDS011;6027;48.576;9.180;2023-04-01T03:23:49;1.27;;;0.60;;
11935;SDS011;6027;48.576;9.180;2023-04-01T03:26:15;0.77;;;0.50;;
11935;SDS011;6027;48.576;9.180;2023-04-01T03:28:41;1.92;;;0.50;;
11935;SDS011;6027;48.576;9.180;2023-04-01T03:31:06;0.40;;;0.40;;
11935;SDS011;6027;48.576;9.180;2023-04-01T03:33:32;0.83;;;0.60;;
11935;SDS011;6027;48.576;9.180;2023-04-01T03:35:57;0.63;;;0.40;;
11935;SDS011;6027;48.576;9.180;2023-04-01T03:38:23;1.60;;;0.50;;
11935;SDS011;6027;48.576;9.180;2023-04-01T03:40:49;0.50;;;0.40;;
11935;SDS011;6027;48.576;9.180;2023-04-01T03:43:14;0.40;;;0.40;;
11935;SDS011;6027;48.576;9.180;2023-04-01T03:45:45;1.90;;;0.50;;
11935;SDS011;6027;48.576;9.180;2023-04-01T03:48:15;0.47;;;0.40;;
11935;SDS011;6027;48.576;9.180;2023-04-01T03:50:40;1.80;;;0.50;;
11935;SDS011;6027;48.576;9.180;2023-04-01T03:53:06;1.23;;;0.40;;
11935;SDS011;6027;48.576;9.180;2023-04-01T03:55:32;1.23;;;0.60;;
11935;SDS011;6027;48.576;9.180;2023-04-01T03:57:57;1.73;;;0.37;;
11935;SDS011;6027;48.576;9.180;2023-04-01T04:00:23;0.80;;;0.40;;
11935;SDS011;6027;48.576;9.180;2023-04-01T04:02:48;0.80;;;0.50;;
11935;SDS011;6027;48.576;9.180;2023-04-01T04:05:14;0.83;;;0.50;;
11935;SDS011;6027;48.576;9.180;2023-04-01T04:07:39;0.47;;;0.40;;
11935;SDS011;6027;48.576;9.180;2023-04-01T04:10:05;0.60;;;0.50;;
11935;SDS011;6027;48.576;9.180;2023-04-01T04:12:31;0.77;;;0.60;;
11935;SDS011;6027;48.576;9.180;2023-04-01T04:14:57;0.57;;;0.40;;
11935;SDS011;6027;48.576;9.180;2023-04-01T04:17:22;0.77;;;0.50;;
11935;SDS011;6027;48.576;9.180;2023-04-01T04:19:48;1.75;;;0.43;;
11935;SDS011;6027;48.576;9.180;2023-04-01T04:22:13;0.87;;;0.57;;
11935;SDS011;6027;48.576;9.180;2023-04-01T04:24:39;1.00;;;0.50;;
11935;SDS011;6027;48.576;9.180;2023-04-01T04:27:04;1.10;;;0.60;;
11935;SDS011;6027;48.576;9.180;2023-04-01T04:29:30;0.73;;;0.70;;
11935;SDS011;6027;48.576;9.180;2023-04-01T04:31:55;2.50;;;0.70;;
11935;SDS011;6027;48.576;9.180;2023-04-01T04:34:21;0.50;;;0.50;;
11935;SDS011;6027;48.576;9.180;2023-04-01T04:36:47;0.73;;;0.60;;
11935;SDS011;6027;48.576;9.180;2023-04-01T04:39:14;0.93;;;0.67;;
11935;SDS011;6027;48.576;9.180;2023-04-01T04:41:39;1.33;;;0.70;;
11935;SDS011;6027;48.576;9.180;2023-04-01T04:44:05;2.63;;;0.90;;
11935;SDS011;6027;48.576;9.180;2023-04-01T04:46:31;1.70;;;1.00;;
11935;SDS011;6027;48.576;9.180;2023-04-01T04:48:56;3.50;;;0.70;;
11935;SDS011;6027;48.576;9.180;2023-04-01T04:51:22;3.53;;;1.00;;
11935;SDS011;6027;48.576;9.180;2023-04-01T04:53:48;1.83;;;0.70;;
11935;SDS011;6027;48.576;9.180;2023-04-01T04:56:17;2.00;;;0.70;;
11935;SDS011;6027;48.576;9.180;2023-04-01T04:58:46;1.90;;;0.90;;
11935;SDS011;6027;48.576;9.180;2023-04-01T05:01:13;1.67;;;0.80;;
11935;SDS011;6027;48.576;9.180;2023-04-01T05:03:39;1.67;;;0.90;;
11935;SDS011;6027;48.576;9.180;2023-04-01T05:06:05;1.47;;;0.90;;
11935;SDS011;6027;48.576;9.180;2023-04-01T05:08:32;1.43;;;0.80;;
11935;SDS011;6027;48.576;9.180;2023-04-01T05:10:59;2.20;;;1.00;;
11935;SDS011;6027;48.576;9.180;2023-04-01T05:13:25;1.50;;;1.10;;
11935;SDS011;6027;48.576;9.180;2023-04-01T05:15:50;4.47;;;2.40;;
11935;SDS011;6027;48.576;9.180;2023-04-01T05:18:16;5.27;;;2.73;;
11935;SDS011;6027;48.576;9.180;2023-04-01T05:20:46;4.27;;;2.43;;
11935;SDS011;6027;48.576;9.180;2023-04-01T05:23:16;2.70;;;1.80;;
11935;SDS011;6027;48.576;9.180;2023-04-01T05:25:42;1.70;;;0.90;;
11935;SDS011;6027;48.576;9.180;2023-04-01T05:28:08;3.37;;;1.30;;
11935;SDS011;6027;48.576;9.180;2023-04-01T05:30:33;3.33;;;1.60;;
11935;SDS011;6027;48.576;9.180;2023-04-01T05:32:59;1.93;;;1.47;;
11935;SDS011;6027;48.576;9.180;2023-04-01T05:35:24;2.17;;;1.00;;
11935;SDS011;6027;48.576;9.180;2023-04-01T05:37:50;2.22;;;0.90;;
11935;SDS011;6027;48.576;9.180;2023-04-01T05:40:15;2.47;;;0.90;;
11935;SDS011;6027;48.576;9.180;2023-04-01T05:42:41;1.70;;;0.70;;
11935;SDS011;6027;48.576;9.180;2023-04-01T05:45:07;1.00;;;0.60;;
11935;SDS011;6027;48.576;9.180;2023-04-01T05:47:33;0.83;;;0.70;;
11935;SDS011;6027;48.576;9.180;2023-04-01T05:49:59;0.83;;;0.70;;
11935;SDS011;6027;48.576;9.180;2023-04-01T05:52:24;0.77;;;0.73;;
11935;SDS011;6027;48.576;9.180;2023-04-01T05:54:50;2.30;;;0.80;;
11935;SDS011;6027;48.576;9.180;2023-04-01T05:59:43;1.00;;;0.70;;
11935;SDS011;6027;48.576;9.180;2023-04-01T06:02:09;3.28;;;2.88;;
11935;SDS011;6027;48.576;9.180;2023-04-01T06:04:39;0.60;;;0.60;;
11935;SDS011;6027;48.576;9.180;2023-04-01T06:07:12;1.00;;;0.90;;
11935;SDS011;6027;48.576;9.180;2023-04-01T06:09:39;1.13;;;0.80;;
11935;SDS011;6027;48.576;9.180;2023-04-01T06:28:07;0.95;;;0.80;;
11935;SDS011;6027;48.576;9.180;2023-04-01T06:44:53;1.13;;;0.70;;
11935;SDS011;6027;48.576;9.180;2023-04-01T06:47:36;1.27;;;0.70;;
11935;SDS011;6027;48.576;9.180;2023-04-01T06:55:43;0.73;;;0.60;;
11935;SDS011;6027;48.576;9.180;2023-04-01T06:58:31;2.47;;;0.70;;
11935;SDS011;6027;48.576;9.180;2023-04-01T07:01:26;0.70;;;0.60;;
11935;SDS011;6027;48.576;9.180;2023-04-01T07:06:52;1.85;;;0.60;;
11935;SDS011;6027;48.576;9.180;2023-04-01T07:09:25;1.10;;;0.60;;
11935;SDS011;6027;48.576;9.180;2023-04-01T07:11:56;1.47;;;0.60;;
11935;SDS011;6027;48.576;9.180;2023-04-01T07:14:32;3.80;;;0.70;;
11935;SDS011;6027;48.576;9.180;2023-04-01T07:17:06;2.80;;;0.70;;
11935;SDS011;6027;48.576;9.180;2023-04-01T07:22:42;0.82;;;0.50;;
11935;SDS011;6027;48.576;9.180;2023-04-01T07:25:13;2.13;;;0.73;;
11935;SDS011;6027;48.576;9.180;2023-04-01T07:27:43;4.53;;;1.10;;
11935;SDS011;6027;48.576;9.180;2023-04-01T07:32:47;2.65;;;0.63;;
11935;SDS011;6027;48.576;9.180;2023-04-01T07:35:23;1.40;;;0.68;;
11935;SDS011;6027;48.576;9.180;2023-04-01T07:46:22;1.73;;;1.10;;
11935;SDS011;6027;48.576;9.180;2023-04-01T08:21:48;1.33;;;0.90;;
11935;SDS011;6027;48.576;9.180;2023-04-01T08:24:20;1.55;;;0.70;;
11935;SDS011;6027;48.576;9.180;2023-04-01T08:26:57;1.45;;;0.85;;
11935;SDS011;6027;48.576;9.180;2023-04-01T08:29:32;1.10;;;0.90;;
11935;SDS011;6027;48.576;9.180;2023-04-01T08:32:11;2.95;;;0.80;;
11935;SDS011;6027;48.576;9.180;2023-04-01T08:34:44;1.52;;;0.90;;
11935;SDS011;6027;48.576;9.180;2023-04-01T08:37:17;0.93;;;0.68;;
11935;SDS011;6027;48.576;9.180;2023-04-01T08:39:51;0.87;;;0.60;;
11935;SDS011;6027;48.576;9.180;2023-04-01T08:48:16;0.82;;;0.60;;
11935;SDS011;6027;48.576;9.180;2023-04-01T09:07:21;1.85;;;0.57;;
11935;SDS011;6027;48.576;9.180;2023-04-01T09:10:29;1.48;;;0.65;;
11935;SDS011;6027;48.576;9.180;2023-04-01T09:13:20;1.63;;;0.80;;
11935;SDS011;6027;48.576;9.180;2023-04-01T09:16:11;1.70;;;0.77;;
11935;SDS011;6027;48.576;9.180;2023-04-01T09:54:13;1.95;;;0.80;;
11935;SDS011;6027;48.576;9.180;2023-04-01T09:59:26;0.90;;;0.80;;
11935;SDS011;6027;48.576;9.180;2023-04-01T10:33:19;0.93;;;0.70;;
11935;SDS011;6027;48.576;9.180;2023-04-01T10:56:22;2.55;;;0.75;;
11935;SDS011;6027;48.576;9.180;2023-04-01T11:07:05;1.30;;;0.50;;
11935;SDS011;6027;48.576;9.180;2023-04-01T11:32:29;0.30;;;0.30;;
11935;SDS011;6027;48.576;9.180;2023-04-01T11:35:25;1.08;;;0.50;;
11935;SDS011;6027;48.576;9.180;2023-04-01T11:38:10;0.85;;;0.60;;
11935;SDS011;6027;48.576;9.180;2023-04-01T11:46:33;0.68;;;0.60;;
11935;SDS011;6027;48.576;9.180;2023-04-01T12:03:11;0.68;;;0.50;;
11935;SDS011;6027;48.576;9.180;2023-04-01T12:06:44;0.65;;;0.50;;
11935;SDS011;6027;48.576;9.180;2023-04-01T12:08:55;0.30;;;0.30;;
11935;SDS011;6027;48.576;9.180;2023-04-01T12:20:22;0.80;;;0.35;;
11935;SDS011;6027;48.576;9.180;2023-04-01T12:23:15;0.40;;;0.40;;
11935;SDS011;6027;48.576;9.180;2023-04-01T12:34:19;0.60;;;0.60;;
11935;SDS011;6027;48.576;9.180;2023-04-01T12:40:02;0.63;;;0.40;;
11935;SDS011;6027;48.576;9.180;2023-04-01T12:46:03;0.85;;;0.63;;
11935;SDS011;6027;48.576;9.180;2023-04-01T13:04:21;1.10;;;0.45;;
11935;SDS011;6027;48.576;9.180;2023-04-01T13:17:42;0.85;;;0.52;;
11935;SDS011;6027;48.576;9.180;2023-04-01T13:28:01;1.02;;;0.45;;
11935;SDS011;6027;48.576;9.180;2023-04-01T13:30:38;0.40;;;0.40;;
11935;SDS011;6027;48.576;9.180;2023-04-01T13:35:46;0.45;;;0.45;;
11935;SDS011;6027;48.576;9.180;2023-04-01T13:43:57;0.82;;;0.40;;
11935;SDS011;6027;48.576;9.180;2023-04-01T13:49:03;0.38;;;0.38;;
11935;SDS011;6027;48.576;9.180;2023-04-01T13:51:49;0.55;;;0.30;;
11935;SDS011;6027;48.576;9.180;2023-04-01T13:54:35;0.40;;;0.40;;
11935;SDS011;6027;48.576;9.180;2023-04-01T14:00:25;0.73;;;0.60;;
11935;SDS011;6027;48.576;9.180;2023-04-01T14:06:00;0.55;;;0.40;;
11935;SDS011;6027;48.576;9.180;2023-04-01T14:11:45;0.30;;;0.30;;
11935;SDS011;6027;48.576;9.180;2023-04-01T14:14:53;3.15;;;0.55;;
11935;SDS011;6027;48.576;9.180;2023-04-01T14:34:55;0.88;;;0.88;;
11935;SDS011;6027;48.576;9.180;2023-04-01T14:40:48;0.57;;;0.57;;
11935;SDS011;6027;48.576;9.180;2023-04-01T14:49:20;0.82;;;0.50;;
11935;SDS011;6027;48.576;9.180;2023-04-01T14:51:55;1.10;;;0.43;;
11935;SDS011;6027;48.576;9.180;2023-04-01T14:54:30;0.45;;;0.40;;
11935;SDS011;6027;48.576;9.180;2023-04-01T14:57:09;0.93;;;0.40;;
11935;SDS011;6027;48.576;9.180;2023-04-01T14:59:40;0.82;;;0.40;;
11935;SDS011;6027;48.576;9.180;2023-04-01T15:04:50;0.60;;;0.50;;
11935;SDS011;6027;48.576;9.180;2023-04-01T15:07:42;1.02;;;0.50;;
11935;SDS011;6027;48.576;9.180;2023-04-01T15:10:14;0.65;;;0.60;;
11935;SDS011;6027;48.576;9.180;2023-04-01T15:18:26;0.50;;;0.50;;
11935;SDS011;6027;48.576;9.180;2023-04-01T15:21:17;0.47;;;0.47;;
11935;SDS011;6027;48.576;9.180;2023-04-01T15:23:46;1.45;;;0.60;;
11935;SDS011;6027;48.576;9.180;2023-04-01T15:29:37;0.40;;;0.40;;
11935;SDS011;6027;48.576;9.180;2023-04-01T15:32:32;1.02;;;0.50;;
11935;SDS011;6027;48.576;9.180;2023-04-01T15:37:56;1.73;;;1.25;;
11935;SDS011;6027;48.576;9.180;2023-04-01T15:45:41;1.40;;;0.70;;
11935;SDS011;6027;48.576;9.180;2023-04-01T15:51:27;1.20;;;0.70;;
11935;SDS011;6027;48.576;9.180;2023-04-01T16:22:26;1.42;;;0.70;;
11935;SDS011;6027;48.576;9.180;2023-04-01T16:28:21;1.00;;;0.57;;
11935;SDS011;6027;48.576;9.180;2023-04-01T16:30:58;1.75;;;0.50;;
11935;SDS011;6027;48.576;9.180;2023-04-01T16:36:21;0.77;;;0.65;;
11935;SDS011;6027;48.576;9.180;2023-04-01T16:40:01;1.38;;;0.47;;
11935;SDS011;6027;48.576;9.180;2023-04-01T16:49:51;1.67;;;0.90;;
11935;SDS011;6027;48.576;9.180;2023-04-01T16:52:32;1.95;;;1.45;;
11935;SDS011;6027;48.576;9.180;2023-04-01T16:55:18;1.75;;;0.90;;
11935;SDS011;6027;48.576;9.180;2023-04-01T16:57:58;0.95;;;0.60;;
11935;SDS011;6027;48.576;9.180;2023-04-01T17:00:27;1.52;;;1.13;;
11935;SDS011;6027;48.576;9.180;2023-04-01T17:05:40;2.45;;;0.60;;
11935;SDS011;6027;48.576;9.180;2023-04-01T17:11:29;0.82;;;0.70;;
11935;SDS011;6027;48.576;9.180;2023-04-01T17:14:12;1.40;;;0.75;;
11935;SDS011;6027;48.576;9.180;2023-04-01T17:22:55;0.90;;;0.65;;
11935;SDS011;6027;48.576;9.180;2023-04-01T17:36:32;0.80;;;0.70;;
11935;SDS011;6027;48.576;9.180;2023-04-01T17:41:42;1.30;;;0.90;;
11935;SDS011;6027;48.576;9.180;2023-04-01T17:44:32;1.45;;;0.70;;
11935;SDS011;6027;48.576;9.180;2023-04-01T17:47:22;4.07;;;2.50;;
11935;SDS011;6027;48.576;9.180;2023-04-01T18:00:30;2.83;;;1.10;;
11935;SDS011;6027;48.576;9.180;2023-04-01T18:06:04;0.80;;;0.70;;
11935;SDS011;6027;48.576;9.180;2023-04-01T18:14:20;1.20;;;0.80;;
11935;SDS011;6027;48.576;9.180;2023-04-01T18:17:04;2.65;;;1.08;;
11935;SDS011;6027;48.576;9.180;2023-04-01T18:22:23;1.35;;;1.10;;
11935;SDS011;6027;48.576;9.180;2023-04-01T18:25:18;1.63;;;0.80;;
11935;SDS011;6027;48.576;9.180;2023-04-01T18:27:41;2.10;;;0.80;;
11935;SDS011;6027;48.576;9.180;2023-04-01T18:32:56;1.02;;;0.70;;
11935;SDS011;6027;48.576;9.180;2023-04-01T18:35:29;1.50;;;0.85;;
11935;SDS011;6027;48.576;9.180;2023-04-01T18:40:50;1.05;;;0.95;;
11935;SDS011;6027;48.576;9.180;2023-04-01T18:46:30;1.00;;;0.70;;
11935;SDS011;6027;48.576;9.180;2023-04-01T18:49:15;1.15;;;0.50;;
11935;SDS011;6027;48.576;9.180;2023-04-01T18:57:01;0.38;;;0.38;;
11935;SDS011;6027;48.576;9.180;2023-04-01T18:59:42;0.65;;;0.60;;
11935;SDS011;6027;48.576;9.180;2023-04-01T19:02:25;1.15;;;0.70;;
11935;SDS011;6027;48.576;9.180;2023-04-01T19:07:55;2.00;;;0.80;;
11935;SDS011;6027;48.576;9.180;2023-04-01T19:21:18;1.65;;;1.00;;
11935;SDS011;6027;48.576;9.180;2023-04-01T19:26:24;3.03;;;1.30;;
11935;SDS011;6027;48.576;9.180;2023-04-01T19:28:56;1.40;;;1.00;;
11935;SDS011;6027;48.576;9.180;2023-04-01T19:31:44;3.25;;;0.95;;
11935;SDS011;6027;48.576;9.180;2023-04-01T19:35:06;1.50;;;1.08;;
11935;SDS011;6027;48.576;9.180;2023-04-01T19:42:41;2.45;;;1.60;;
11935;SDS011;6027;48.576;9.180;2023-04-01T20:00:06;5.45;;;4.78;;
11935;SDS011;6027;48.576;9.180;2023-04-01T20:05:35;3.40;;;2.88;;
11935;SDS011;6027;48.576;9.180;2023-04-01T20:16:23;4.50;;;3.45;;
11935;SDS011;6027;48.576;9.180;2023-04-01T20:19:35;3.35;;;2.20;;
11935;SDS011;6027;48.576;9.180;2023-04-01T20:24:51;3.90;;;1.30;;
11935;SDS011;6027;48.576;9.180;2023-04-01T20:27:20;3.33;;;1.30;;
11935;SDS011;6027;48.576;9.180;2023-04-01T20:32:35;2.47;;;1.50;;
11935;SDS011;6027;48.576;9.180;2023-04-01T20:40:56;5.18;;;3.28;;
11935;SDS011;6027;48.576;9.180;2023-04-01T21:12:40;2.47;;;1.63;;
11935;SDS011;6027;48.576;9.180;2023-04-01T21:18:21;2.00;;;1.17;;
11935;SDS011;6027;48.576;9.180;2023-04-01T21:25:45;3.25;;;2.60;;
11935;SDS011;6027;48.576;9.180;2023-04-01T21:28:30;2.20;;;1.70;;
11935;SDS011;6027;48.576;9.180;2023-04-01T21:33:59;1.80;;;1.27;;
11935;SDS011;6027;48.576;9.180;2023-04-01T21:44:56;2.35;;;1.98;;
11935;SDS011;6027;48.576;9.180;2023-04-01T21:50:53;1.30;;;1.20;;
11935;SDS011;6027;48.576;9.180;2023-04-01T22:18:38;2.70;;;1.47;;
11935;SDS011;6027;48.576;9.180;2023-04-01T22:31:44;2.15;;;1.27;;
11935;SDS011;6027;48.576;9.180;2023-04-01T22:34:20;1.67;;;1.05;;
11935;SDS011;6027;48.576;9.180;2023-04-01T22:50:19;1.05;;;0.90;;
11935;SDS011;6027;48.576;9.180;2023-04-01T22:52:55;1.37;;;0.90;;
11935;SDS011;6027;48.576;9.180;2023-04-01T22:55:44;0.75;;;0.75;;
11935;SDS011;6027;48.576;9.180;2023-04-01T22:58:14;1.30;;;0.80;;
11935;SDS011;6027;48.576;9.180;2023-04-01T23:00:47;0.98;;;0.80;;
11935;SDS011;6027;48.576;9.180;2023-04-01T23:03:19;1.48;;;0.70;;
11935;SDS011;6027;48.576;9.180;2023-04-01T23:05:51;1.57;;;0.80;;
11935;SDS011;6027;48.576;9.180;2023-04-01T23:11:04;1.30;;;1.00;;
11935;SDS011;6027;48.576;9.180;2023-04-01T23:13:34;0.77;;;0.77;;
11935;SDS011;6027;48.576;9.180;2023-04-01T23:16:05;1.33;;;0.70;;
11935;SDS011;6027;48.576;9.180;2023-04-01T23:29:23;0.70;;;0.70;;
11935;SDS011;6027;48.576;9.180;2023-04-01T23:31:57;0.90;;;0.73;;
11935;SDS011;6027;48.576;9.180;2023-04-01T23:34:34;0.90;;;0.70;;
11935;SDS011;6027;48.576;9.180;2023-04-01T23:37:02;1.73;;;0.50;;
11935;SDS011;6027;48.576;9.180;2023-04-01T23:39:38;0.98;;;0.73;;
11935;SDS011;6027;48.576;9.180;2023-04-01T23:45:21;0.68;;;0.68;;
11935;SDS011;6027;48.576;9.180;2023-04-01T23:47:47;1.53;;;0.60;;
11935;SDS011;6027;48.576;9.180;2023-04-01T23:50:19;1.00;;;0.70;;
11935;SDS011;6027;48.576;9.180;2023-04-01T23:52:59;1.02;;;0.73;;
11935;SDS011;6027;48.576;9.180;2023-04-01T23:55:29;0.60;;;0.60;;
